sensor_id;sensor_type;location;lat;lon;timestamp;P1;durP1;ratioP1;P2;durP2;ratioP2
21837;SDS011;11081;45.946;6.140;2022-08-21T00:01:02;1.13;;;0.80;;
21837;SDS011;11081;45.946;6.140;2022-08-21T00:03:32;0.70;;;0.60;;
21837;SDS011;11081;45.946;6.140;2022-08-21T00:06:00;1.73;;;0.70;;
21837;SDS011;11081;45.946;6.140;2022-08-21T00:08:28;0.93;;;0.80;;
21837;SDS011;11081;45.946;6.140;2022-08-21T00:10:58;1.65;;;0.70;;
21837;SDS011;11081;45.946;6.140;2022-08-21T00:13:26;6.32;;;0.80;;
21837;SDS011;11081;45.946;6.140;2022-08-21T00:15:54;2.38;;;0.80;;
21837;SDS011;11081;45.946;6.140;2022-08-21T00:18:22;2.35;;;0.70;;
21837;SDS011;11081;45.946;6.140;2022-08-21T00:20:50;2.97;;;1.20;;
21837;SDS011;11081;45.946;6.140;2022-08-21T00:23:19;0.73;;;0.70;;
21837;SDS011;11081;45.946;6.140;2022-08-21T00:25:47;2.20;;;0.70;;
21837;SDS011;11081;45.946;6.140;2022-08-21T00:28:16;1.60;;;0.90;;
21837;SDS011;11081;45.946;6.140;2022-08-21T00:30:45;2.70;;;0.70;;
21837;SDS011;11081;45.946;6.140;2022-08-21T00:33:13;1.92;;;0.90;;
21837;SDS011;11081;45.946;6.140;2022-08-21T00:35:42;1.55;;;0.70;;
21837;SDS011;11081;45.946;6.140;2022-08-21T00:38:11;3.35;;;1.17;;
21837;SDS011;11081;45.946;6.140;2022-08-21T00:40:40;1.95;;;0.90;;
21837;SDS011;11081;45.946;6.140;2022-08-21T00:43:11;2.67;;;0.90;;
21837;SDS011;11081;45.946;6.140;2022-08-21T00:45:43;4.20;;;1.05;;
21837;SDS011;11081;45.946;6.140;2022-08-21T00:48:12;1.67;;;0.70;;
21837;SDS011;11081;45.946;6.140;2022-08-21T00:50:42;2.22;;;0.80;;
21837;SDS011;11081;45.946;6.140;2022-08-21T00:53:13;5.40;;;0.90;;
21837;SDS011;11081;45.946;6.140;2022-08-21T00:55:42;2.28;;;0.95;;
21837;SDS011;11081;45.946;6.140;2022-08-21T00:58:12;5.43;;;0.95;;
21837;SDS011;11081;45.946;6.140;2022-08-21T01:00:45;1.15;;;1.00;;
21837;SDS011;11081;45.946;6.140;2022-08-21T01:03:16;3.67;;;1.20;;
21837;SDS011;11081;45.946;6.140;2022-08-21T01:05:49;2.92;;;1.00;;
21837;SDS011;11081;45.946;6.140;2022-08-21T01:08:18;1.95;;;1.00;;
21837;SDS011;11081;45.946;6.140;2022-08-21T01:10:48;1.85;;;0.70;;
21837;SDS011;11081;45.946;6.140;2022-08-21T01:13:24;2.08;;;0.60;;
21837;SDS011;11081;45.946;6.140;2022-08-21T01:15:55;1.67;;;0.85;;
21837;SDS011;11081;45.946;6.140;2022-08-21T01:18:26;1.00;;;0.90;;
21837;SDS011;11081;45.946;6.140;2022-08-21T01:21:00;1.02;;;0.85;;
21837;SDS011;11081;45.946;6.140;2022-08-21T01:23:29;1.98;;;0.80;;
21837;SDS011;11081;45.946;6.140;2022-08-21T01:25:57;0.60;;;0.60;;
21837;SDS011;11081;45.946;6.140;2022-08-21T01:28:25;7.93;;;1.10;;
21837;SDS011;11081;45.946;6.140;2022-08-21T01:30:56;1.25;;;0.90;;
21837;SDS011;11081;45.946;6.140;2022-08-21T01:33:26;2.13;;;0.90;;
21837;SDS011;11081;45.946;6.140;2022-08-21T01:35:54;1.75;;;0.80;;
21837;SDS011;11081;45.946;6.140;2022-08-21T01:38:24;2.65;;;0.88;;
21837;SDS011;11081;45.946;6.140;2022-08-21T01:40:54;4.18;;;0.82;;
21837;SDS011;11081;45.946;6.140;2022-08-21T01:43:22;2.85;;;1.00;;
21837;SDS011;11081;45.946;6.140;2022-08-21T01:46:04;1.38;;;1.10;;
21837;SDS011;11081;45.946;6.140;2022-08-21T01:48:32;1.45;;;0.80;;
21837;SDS011;11081;45.946;6.140;2022-08-21T01:51:01;3.17;;;1.00;;
21837;SDS011;11081;45.946;6.140;2022-08-21T01:53:30;5.10;;;0.85;;
21837;SDS011;11081;45.946;6.140;2022-08-21T01:56:00;4.07;;;1.10;;
21837;SDS011;11081;45.946;6.140;2022-08-21T01:58:28;1.60;;;0.82;;
21837;SDS011;11081;45.946;6.140;2022-08-21T02:00:56;1.48;;;0.88;;
21837;SDS011;11081;45.946;6.140;2022-08-21T02:03:24;1.08;;;0.80;;
21837;SDS011;11081;45.946;6.140;2022-08-21T02:06:01;1.25;;;0.90;;
21837;SDS011;11081;45.946;6.140;2022-08-21T02:08:31;3.70;;;1.10;;
21837;SDS011;11081;45.946;6.140;2022-08-21T02:10:59;1.00;;;0.75;;
21837;SDS011;11081;45.946;6.140;2022-08-21T02:13:27;2.58;;;1.10;;
21837;SDS011;11081;45.946;6.140;2022-08-21T02:15:56;3.40;;;0.88;;
21837;SDS011;11081;45.946;6.140;2022-08-21T02:18:24;2.42;;;1.05;;
21837;SDS011;11081;45.946;6.140;2022-08-21T02:20:52;1.58;;;1.10;;
21837;SDS011;11081;45.946;6.140;2022-08-21T02:23:22;3.88;;;0.95;;
21837;SDS011;11081;45.946;6.140;2022-08-21T02:25:53;2.08;;;0.80;;
21837;SDS011;11081;45.946;6.140;2022-08-21T02:28:22;7.63;;;1.10;;
21837;SDS011;11081;45.946;6.140;2022-08-21T02:30:53;1.77;;;1.13;;
21837;SDS011;11081;45.946;6.140;2022-08-21T02:33:22;3.22;;;0.80;;
21837;SDS011;11081;45.946;6.140;2022-08-21T02:35:50;3.67;;;0.80;;
21837;SDS011;11081;45.946;6.140;2022-08-21T02:38:20;2.00;;;1.05;;
21837;SDS011;11081;45.946;6.140;2022-08-21T02:40:51;1.17;;;0.80;;
21837;SDS011;11081;45.946;6.140;2022-08-21T02:43:22;4.10;;;0.90;;
21837;SDS011;11081;45.946;6.140;2022-08-21T02:45:53;3.22;;;1.20;;
21837;SDS011;11081;45.946;6.140;2022-08-21T02:48:22;2.15;;;1.10;;
21837;SDS011;11081;45.946;6.140;2022-08-21T02:50:53;5.75;;;0.93;;
21837;SDS011;11081;45.946;6.140;2022-08-21T02:53:22;2.33;;;1.20;;
21837;SDS011;11081;45.946;6.140;2022-08-21T02:55:51;2.55;;;1.00;;
21837;SDS011;11081;45.946;6.140;2022-08-21T02:58:22;2.05;;;0.80;;
21837;SDS011;11081;45.946;6.140;2022-08-21T03:00:52;1.67;;;1.17;;
21837;SDS011;11081;45.946;6.140;2022-08-21T03:03:21;2.47;;;1.00;;
21837;SDS011;11081;45.946;6.140;2022-08-21T03:05:49;3.60;;;0.90;;
21837;SDS011;11081;45.946;6.140;2022-08-21T03:08:17;1.00;;;0.90;;
21837;SDS011;11081;45.946;6.140;2022-08-21T03:10:50;7.78;;;1.17;;
21837;SDS011;11081;45.946;6.140;2022-08-21T03:13:19;4.07;;;0.90;;
21837;SDS011;11081;45.946;6.140;2022-08-21T03:15:49;1.67;;;0.98;;
21837;SDS011;11081;45.946;6.140;2022-08-21T03:18:18;4.50;;;0.85;;
21837;SDS011;11081;45.946;6.140;2022-08-21T03:20:46;1.60;;;1.05;;
21837;SDS011;11081;45.946;6.140;2022-08-21T03:23:15;1.70;;;1.02;;
21837;SDS011;11081;45.946;6.140;2022-08-21T03:25:45;3.75;;;1.30;;
21837;SDS011;11081;45.946;6.140;2022-08-21T03:28:15;5.28;;;0.90;;
21837;SDS011;11081;45.946;6.140;2022-08-21T03:30:45;4.90;;;1.25;;
21837;SDS011;11081;45.946;6.140;2022-08-21T03:33:17;5.43;;;1.00;;
21837;SDS011;11081;45.946;6.140;2022-08-21T03:35:51;2.28;;;1.23;;
21837;SDS011;11081;45.946;6.140;2022-08-21T03:38:24;2.50;;;0.85;;
21837;SDS011;11081;45.946;6.140;2022-08-21T03:40:52;2.85;;;1.00;;
21837;SDS011;11081;45.946;6.140;2022-08-21T03:43:20;2.33;;;1.23;;
21837;SDS011;11081;45.946;6.140;2022-08-21T03:45:48;2.75;;;0.90;;
21837;SDS011;11081;45.946;6.140;2022-08-21T03:48:19;2.55;;;1.00;;
21837;SDS011;11081;45.946;6.140;2022-08-21T03:50:47;1.30;;;0.80;;
21837;SDS011;11081;45.946;6.140;2022-08-21T03:53:16;1.80;;;1.25;;
21837;SDS011;11081;45.946;6.140;2022-08-21T03:55:44;1.65;;;1.00;;
21837;SDS011;11081;45.946;6.140;2022-08-21T03:58:14;3.17;;;0.90;;
21837;SDS011;11081;45.946;6.140;2022-08-21T04:00:43;2.85;;;1.15;;
21837;SDS011;11081;45.946;6.140;2022-08-21T04:03:13;2.90;;;1.20;;
21837;SDS011;11081;45.946;6.140;2022-08-21T04:05:43;1.55;;;1.00;;
21837;SDS011;11081;45.946;6.140;2022-08-21T04:08:13;2.15;;;0.95;;
21837;SDS011;11081;45.946;6.140;2022-08-21T04:10:43;1.83;;;1.30;;
21837;SDS011;11081;45.946;6.140;2022-08-21T04:13:15;2.22;;;1.15;;
21837;SDS011;11081;45.946;6.140;2022-08-21T04:15:43;2.13;;;1.20;;
21837;SDS011;11081;45.946;6.140;2022-08-21T04:18:11;1.83;;;0.85;;
21837;SDS011;11081;45.946;6.140;2022-08-21T04:20:39;3.85;;;1.13;;
21837;SDS011;11081;45.946;6.140;2022-08-21T04:23:17;2.72;;;1.13;;
21837;SDS011;11081;45.946;6.140;2022-08-21T04:25:50;2.53;;;1.15;;
21837;SDS011;11081;45.946;6.140;2022-08-21T04:28:19;2.47;;;1.35;;
21837;SDS011;11081;45.946;6.140;2022-08-21T04:30:48;3.13;;;1.25;;
21837;SDS011;11081;45.946;6.140;2022-08-21T04:33:18;4.25;;;1.17;;
21837;SDS011;11081;45.946;6.140;2022-08-21T04:35:47;1.60;;;0.90;;
21837;SDS011;11081;45.946;6.140;2022-08-21T04:38:16;1.80;;;0.95;;
21837;SDS011;11081;45.946;6.140;2022-08-21T04:40:45;2.45;;;0.90;;
21837;SDS011;11081;45.946;6.140;2022-08-21T04:43:14;1.30;;;1.10;;
21837;SDS011;11081;45.946;6.140;2022-08-21T04:45:43;2.60;;;0.90;;
21837;SDS011;11081;45.946;6.140;2022-08-21T04:48:14;1.65;;;0.93;;
21837;SDS011;11081;45.946;6.140;2022-08-21T04:50:45;2.17;;;0.80;;
21837;SDS011;11081;45.946;6.140;2022-08-21T04:53:20;1.38;;;1.13;;
21837;SDS011;11081;45.946;6.140;2022-08-21T04:55:52;2.22;;;0.82;;
21837;SDS011;11081;45.946;6.140;2022-08-21T04:58:22;0.93;;;0.82;;
21837;SDS011;11081;45.946;6.140;2022-08-21T05:00:52;2.70;;;0.95;;
21837;SDS011;11081;45.946;6.140;2022-08-21T05:03:22;1.20;;;1.00;;
21837;SDS011;11081;45.946;6.140;2022-08-21T05:05:51;1.98;;;1.05;;
21837;SDS011;11081;45.946;6.140;2022-08-21T05:08:21;1.05;;;0.82;;
21837;SDS011;11081;45.946;6.140;2022-08-21T05:10:51;2.75;;;0.75;;
21837;SDS011;11081;45.946;6.140;2022-08-21T05:13:25;2.83;;;1.05;;
21837;SDS011;11081;45.946;6.140;2022-08-21T05:15:54;4.85;;;0.93;;
21837;SDS011;11081;45.946;6.140;2022-08-21T05:18:22;1.10;;;0.90;;
21837;SDS011;11081;45.946;6.140;2022-08-21T05:20:50;1.88;;;1.00;;
21837;SDS011;11081;45.946;6.140;2022-08-21T05:23:18;2.00;;;1.05;;
21837;SDS011;11081;45.946;6.140;2022-08-21T05:25:48;1.75;;;1.05;;
21837;SDS011;11081;45.946;6.140;2022-08-21T05:28:16;4.40;;;1.20;;
21837;SDS011;11081;45.946;6.140;2022-08-21T05:30:45;1.65;;;0.90;;
21837;SDS011;11081;45.946;6.140;2022-08-21T05:33:13;2.63;;;1.10;;
21837;SDS011;11081;45.946;6.140;2022-08-21T05:35:41;1.30;;;0.90;;
21837;SDS011;11081;45.946;6.140;2022-08-21T05:38:09;2.45;;;1.00;;
21837;SDS011;11081;45.946;6.140;2022-08-21T05:40:43;3.70;;;1.20;;
21837;SDS011;11081;45.946;6.140;2022-08-21T05:43:13;3.63;;;1.20;;
21837;SDS011;11081;45.946;6.140;2022-08-21T05:45:41;1.55;;;1.25;;
21837;SDS011;11081;45.946;6.140;2022-08-21T05:48:10;4.20;;;1.33;;
21837;SDS011;11081;45.946;6.140;2022-08-21T05:50:41;4.22;;;1.38;;
21837;SDS011;11081;45.946;6.140;2022-08-21T05:53:10;3.22;;;1.38;;
21837;SDS011;11081;45.946;6.140;2022-08-21T05:55:39;3.03;;;1.20;;
21837;SDS011;11081;45.946;6.140;2022-08-21T05:58:14;3.72;;;1.27;;
21837;SDS011;11081;45.946;6.140;2022-08-21T06:00:44;1.77;;;1.10;;
21837;SDS011;11081;45.946;6.140;2022-08-21T06:03:14;2.08;;;1.10;;
21837;SDS011;11081;45.946;6.140;2022-08-21T06:05:44;5.18;;;1.38;;
21837;SDS011;11081;45.946;6.140;2022-08-21T06:08:12;1.48;;;1.20;;
21837;SDS011;11081;45.946;6.140;2022-08-21T06:10:41;4.50;;;1.20;;
21837;SDS011;11081;45.946;6.140;2022-08-21T06:13:09;1.42;;;1.05;;
21837;SDS011;11081;45.946;6.140;2022-08-21T06:15:39;1.33;;;1.10;;
21837;SDS011;11081;45.946;6.140;2022-08-21T06:18:08;1.13;;;1.02;;
21837;SDS011;11081;45.946;6.140;2022-08-21T06:20:37;1.80;;;1.27;;
21837;SDS011;11081;45.946;6.140;2022-08-21T06:23:05;2.47;;;1.10;;
21837;SDS011;11081;45.946;6.140;2022-08-21T06:25:33;2.42;;;1.10;;
21837;SDS011;11081;45.946;6.140;2022-08-21T06:28:03;4.32;;;1.00;;
21837;SDS011;11081;45.946;6.140;2022-08-21T06:30:32;2.53;;;1.15;;
21837;SDS011;11081;45.946;6.140;2022-08-21T06:33:04;4.22;;;1.17;;
21837;SDS011;11081;45.946;6.140;2022-08-21T06:35:33;1.27;;;1.15;;
21837;SDS011;11081;45.946;6.140;2022-08-21T06:38:02;1.52;;;1.10;;
21837;SDS011;11081;45.946;6.140;2022-08-21T06:40:31;3.15;;;1.17;;
21837;SDS011;11081;45.946;6.140;2022-08-21T06:43:04;2.92;;;1.20;;
21837;SDS011;11081;45.946;6.140;2022-08-21T06:45:34;1.52;;;1.15;;
21837;SDS011;11081;45.946;6.140;2022-08-21T06:48:04;3.15;;;1.20;;
21837;SDS011;11081;45.946;6.140;2022-08-21T06:50:33;0.98;;;0.80;;
21837;SDS011;11081;45.946;6.140;2022-08-21T06:53:02;4.72;;;1.30;;
21837;SDS011;11081;45.946;6.140;2022-08-21T06:55:33;3.25;;;1.10;;
21837;SDS011;11081;45.946;6.140;2022-08-21T06:58:02;1.25;;;0.90;;
21837;SDS011;11081;45.946;6.140;2022-08-21T07:00:30;3.35;;;1.17;;
21837;SDS011;11081;45.946;6.140;2022-08-21T07:02:59;2.50;;;1.35;;
21837;SDS011;11081;45.946;6.140;2022-08-21T07:05:28;2.88;;;1.00;;
21837;SDS011;11081;45.946;6.140;2022-08-21T07:07:57;4.57;;;1.42;;
21837;SDS011;11081;45.946;6.140;2022-08-21T07:10:26;4.18;;;1.45;;
21837;SDS011;11081;45.946;6.140;2022-08-21T07:12:55;2.20;;;1.20;;
21837;SDS011;11081;45.946;6.140;2022-08-21T07:15:27;2.15;;;1.27;;
21837;SDS011;11081;45.946;6.140;2022-08-21T07:17:56;1.85;;;1.10;;
21837;SDS011;11081;45.946;6.140;2022-08-21T07:20:24;1.40;;;1.15;;
21837;SDS011;11081;45.946;6.140;2022-08-21T07:22:54;1.90;;;0.85;;
21837;SDS011;11081;45.946;6.140;2022-08-21T07:25:23;1.20;;;1.05;;
21837;SDS011;11081;45.946;6.140;2022-08-21T07:27:51;4.32;;;1.10;;
21837;SDS011;11081;45.946;6.140;2022-08-21T07:30:20;1.23;;;1.10;;
21837;SDS011;11081;45.946;6.140;2022-08-21T07:32:48;1.38;;;1.10;;
21837;SDS011;11081;45.946;6.140;2022-08-21T07:35:16;1.88;;;1.13;;
21837;SDS011;11081;45.946;6.140;2022-08-21T07:37:45;2.13;;;1.10;;
21837;SDS011;11081;45.946;6.140;2022-08-21T07:40:14;2.55;;;1.30;;
21837;SDS011;11081;45.946;6.140;2022-08-21T07:42:44;1.75;;;0.90;;
21837;SDS011;11081;45.946;6.140;2022-08-21T07:45:13;5.00;;;1.45;;
21837;SDS011;11081;45.946;6.140;2022-08-21T07:47:41;1.50;;;1.15;;
21837;SDS011;11081;45.946;6.140;2022-08-21T07:50:10;3.03;;;1.15;;
21837;SDS011;11081;45.946;6.140;2022-08-21T07:52:39;1.33;;;1.15;;
21837;SDS011;11081;45.946;6.140;2022-08-21T07:55:08;2.28;;;1.30;;
21837;SDS011;11081;45.946;6.140;2022-08-21T07:57:40;4.05;;;1.30;;
21837;SDS011;11081;45.946;6.140;2022-08-21T08:00:09;1.80;;;1.00;;
21837;SDS011;11081;45.946;6.140;2022-08-21T08:02:39;3.35;;;1.20;;
21837;SDS011;11081;45.946;6.140;2022-08-21T08:05:09;4.97;;;1.02;;
21837;SDS011;11081;45.946;6.140;2022-08-21T08:07:38;2.17;;;1.17;;
21837;SDS011;11081;45.946;6.140;2022-08-21T08:10:08;3.00;;;1.40;;
21837;SDS011;11081;45.946;6.140;2022-08-21T08:12:37;2.90;;;1.13;;
21837;SDS011;11081;45.946;6.140;2022-08-21T08:15:09;2.10;;;1.23;;
21837;SDS011;11081;45.946;6.140;2022-08-21T08:17:39;2.15;;;1.40;;
21837;SDS011;11081;45.946;6.140;2022-08-21T08:20:07;6.85;;;1.40;;
21837;SDS011;11081;45.946;6.140;2022-08-21T08:22:37;1.77;;;1.40;;
21837;SDS011;11081;45.946;6.140;2022-08-21T08:25:08;3.08;;;1.80;;
21837;SDS011;11081;45.946;6.140;2022-08-21T08:27:37;1.58;;;1.35;;
21837;SDS011;11081;45.946;6.140;2022-08-21T08:30:08;3.13;;;1.20;;
21837;SDS011;11081;45.946;6.140;2022-08-21T08:32:38;2.22;;;1.30;;
21837;SDS011;11081;45.946;6.140;2022-08-21T08:35:07;3.88;;;1.40;;
21837;SDS011;11081;45.946;6.140;2022-08-21T08:37:37;2.60;;;1.30;;
21837;SDS011;11081;45.946;6.140;2022-08-21T08:40:09;2.25;;;1.20;;
21837;SDS011;11081;45.946;6.140;2022-08-21T08:42:40;4.40;;;1.15;;
21837;SDS011;11081;45.946;6.140;2022-08-21T08:45:12;5.80;;;1.45;;
21837;SDS011;11081;45.946;6.140;2022-08-21T08:47:43;2.13;;;1.40;;
21837;SDS011;11081;45.946;6.140;2022-08-21T08:50:15;3.65;;;1.48;;
21837;SDS011;11081;45.946;6.140;2022-08-21T08:52:48;1.48;;;1.20;;
21837;SDS011;11081;45.946;6.140;2022-08-21T08:55:19;2.60;;;1.27;;
21837;SDS011;11081;45.946;6.140;2022-08-21T08:57:53;2.70;;;1.42;;
21837;SDS011;11081;45.946;6.140;2022-08-21T09:00:24;2.88;;;1.27;;
21837;SDS011;11081;45.946;6.140;2022-08-21T09:02:54;1.38;;;1.20;;
21837;SDS011;11081;45.946;6.140;2022-08-21T09:05:24;1.60;;;1.20;;
21837;SDS011;11081;45.946;6.140;2022-08-21T09:08:00;1.88;;;1.25;;
21837;SDS011;11081;45.946;6.140;2022-08-21T09:10:47;2.75;;;1.40;;
21837;SDS011;11081;45.946;6.140;2022-08-21T09:13:24;2.47;;;1.33;;
21837;SDS011;11081;45.946;6.140;2022-08-21T09:16:08;4.10;;;1.17;;
21837;SDS011;11081;45.946;6.140;2022-08-21T09:18:51;3.60;;;1.60;;
21837;SDS011;11081;45.946;6.140;2022-08-21T09:21:28;3.05;;;1.50;;
21837;SDS011;11081;45.946;6.140;2022-08-21T09:24:07;2.92;;;1.00;;
21837;SDS011;11081;45.946;6.140;2022-08-21T09:26:52;3.60;;;1.50;;
21837;SDS011;11081;45.946;6.140;2022-08-21T09:29:27;2.22;;;1.30;;
21837;SDS011;11081;45.946;6.140;2022-08-21T09:32:00;2.63;;;1.40;;
21837;SDS011;11081;45.946;6.140;2022-08-21T09:34:54;1.33;;;1.20;;
21837;SDS011;11081;45.946;6.140;2022-08-21T09:37:25;4.22;;;1.40;;
21837;SDS011;11081;45.946;6.140;2022-08-21T09:39:55;1.30;;;1.20;;
21837;SDS011;11081;45.946;6.140;2022-08-21T09:42:25;3.03;;;1.13;;
21837;SDS011;11081;45.946;6.140;2022-08-21T09:45:06;6.07;;;1.30;;
21837;SDS011;11081;45.946;6.140;2022-08-21T09:47:39;2.50;;;1.30;;
21837;SDS011;11081;45.946;6.140;2022-08-21T09:50:11;2.72;;;1.40;;
21837;SDS011;11081;45.946;6.140;2022-08-21T09:52:44;1.90;;;1.35;;
21837;SDS011;11081;45.946;6.140;2022-08-21T09:55:18;1.52;;;1.10;;
21837;SDS011;11081;45.946;6.140;2022-08-21T09:58:07;3.38;;;1.33;;
21837;SDS011;11081;45.946;6.140;2022-08-21T10:00:35;1.73;;;1.10;;
21837;SDS011;11081;45.946;6.140;2022-08-21T10:03:09;1.23;;;0.95;;
21837;SDS011;11081;45.946;6.140;2022-08-21T10:05:53;1.58;;;1.40;;
21837;SDS011;11081;45.946;6.140;2022-08-21T10:08:24;3.58;;;1.40;;
21837;SDS011;11081;45.946;6.140;2022-08-21T10:10:56;1.63;;;1.30;;
21837;SDS011;11081;45.946;6.140;2022-08-21T10:13:42;1.00;;;0.85;;
21837;SDS011;11081;45.946;6.140;2022-08-21T10:16:25;1.48;;;0.80;;
21837;SDS011;11081;45.946;6.140;2022-08-21T10:19:08;3.38;;;1.30;;
21837;SDS011;11081;45.946;6.140;2022-08-21T10:21:54;1.00;;;0.77;;
21837;SDS011;11081;45.946;6.140;2022-08-21T10:24:29;0.88;;;0.80;;
21837;SDS011;11081;45.946;6.140;2022-08-21T10:27:05;2.10;;;0.88;;
21837;SDS011;11081;45.946;6.140;2022-08-21T10:29:45;1.52;;;0.80;;
21837;SDS011;11081;45.946;6.140;2022-08-21T10:35:14;2.65;;;0.70;;
21837;SDS011;11081;45.946;6.140;2022-08-21T10:41:08;3.97;;;1.00;;
21837;SDS011;11081;45.946;6.140;2022-08-21T10:43:45;5.93;;;1.00;;
21837;SDS011;11081;45.946;6.140;2022-08-21T10:46:25;3.00;;;1.02;;
21837;SDS011;11081;45.946;6.140;2022-08-21T10:49:07;4.25;;;0.77;;
21837;SDS011;11081;45.946;6.140;2022-08-21T10:51:48;1.35;;;0.70;;
21837;SDS011;11081;45.946;6.140;2022-08-21T10:54:26;1.20;;;1.00;;
21837;SDS011;11081;45.946;6.140;2022-08-21T10:57:04;1.67;;;1.10;;
21837;SDS011;11081;45.946;6.140;2022-08-21T10:59:38;3.70;;;0.85;;
21837;SDS011;11081;45.946;6.140;2022-08-21T11:02:13;4.68;;;0.90;;
21837;SDS011;11081;45.946;6.140;2022-08-21T11:04:48;1.02;;;0.85;;
21837;SDS011;11081;45.946;6.140;2022-08-21T11:07:43;1.20;;;0.80;;
21837;SDS011;11081;45.946;6.140;2022-08-21T11:10:16;1.85;;;0.70;;
21837;SDS011;11081;45.946;6.140;2022-08-21T11:12:51;2.50;;;1.08;;
21837;SDS011;11081;45.946;6.140;2022-08-21T11:15:25;1.25;;;0.70;;
21837;SDS011;11081;45.946;6.140;2022-08-21T11:18:02;6.30;;;0.98;;
21837;SDS011;11081;45.946;6.140;2022-08-21T11:20:46;2.45;;;0.95;;
21837;SDS011;11081;45.946;6.140;2022-08-21T11:23:22;2.10;;;0.90;;
21837;SDS011;11081;45.946;6.140;2022-08-21T11:25:58;3.60;;;1.02;;
21837;SDS011;11081;45.946;6.140;2022-08-21T11:28:33;0.95;;;0.82;;
21837;SDS011;11081;45.946;6.140;2022-08-21T11:31:07;1.23;;;0.73;;
21837;SDS011;11081;45.946;6.140;2022-08-21T11:33:48;2.25;;;0.82;;
21837;SDS011;11081;45.946;6.140;2022-08-21T11:36:30;0.85;;;0.80;;
21837;SDS011;11081;45.946;6.140;2022-08-21T11:39:14;1.27;;;0.82;;
21837;SDS011;11081;45.946;6.140;2022-08-21T11:41:49;1.50;;;0.63;;
21837;SDS011;11081;45.946;6.140;2022-08-21T11:44:36;2.58;;;0.80;;
21837;SDS011;11081;45.946;6.140;2022-08-21T11:47:14;1.60;;;0.57;;
21837;SDS011;11081;45.946;6.140;2022-08-21T11:49:52;1.15;;;0.70;;
21837;SDS011;11081;45.946;6.140;2022-08-21T11:52:30;0.70;;;0.70;;
21837;SDS011;11081;45.946;6.140;2022-08-21T11:55:05;0.77;;;0.60;;
21837;SDS011;11081;45.946;6.140;2022-08-21T11:57:46;1.02;;;0.70;;
21837;SDS011;11081;45.946;6.140;2022-08-21T12:00:22;3.63;;;0.80;;
21837;SDS011;11081;45.946;6.140;2022-08-21T12:02:56;3.38;;;0.90;;
21837;SDS011;11081;45.946;6.140;2022-08-21T12:05:33;1.17;;;0.82;;
21837;SDS011;11081;45.946;6.140;2022-08-21T12:08:05;2.03;;;1.00;;
21837;SDS011;11081;45.946;6.140;2022-08-21T12:10:37;0.80;;;0.63;;
21837;SDS011;11081;45.946;6.140;2022-08-21T12:13:09;0.75;;;0.70;;
21837;SDS011;11081;45.946;6.140;2022-08-21T12:15:40;1.13;;;0.73;;
21837;SDS011;11081;45.946;6.140;2022-08-21T12:18:19;2.33;;;0.68;;
21837;SDS011;11081;45.946;6.140;2022-08-21T12:20:57;0.88;;;0.70;;
21837;SDS011;11081;45.946;6.140;2022-08-21T12:23:29;3.55;;;0.73;;
21837;SDS011;11081;45.946;6.140;2022-08-21T12:26:10;1.25;;;0.98;;
21837;SDS011;11081;45.946;6.140;2022-08-21T12:28:47;1.20;;;0.90;;
21837;SDS011;11081;45.946;6.140;2022-08-21T12:31:19;1.05;;;0.60;;
21837;SDS011;11081;45.946;6.140;2022-08-21T12:33:51;0.75;;;0.65;;
21837;SDS011;11081;45.946;6.140;2022-08-21T12:36:23;1.63;;;0.63;;
21837;SDS011;11081;45.946;6.140;2022-08-21T12:38:54;1.25;;;0.60;;
21837;SDS011;11081;45.946;6.140;2022-08-21T12:41:27;2.55;;;0.68;;
21837;SDS011;11081;45.946;6.140;2022-08-21T12:43:59;2.15;;;0.80;;
21837;SDS011;11081;45.946;6.140;2022-08-21T12:46:34;1.48;;;0.85;;
21837;SDS011;11081;45.946;6.140;2022-08-21T12:49:07;2.97;;;1.02;;
21837;SDS011;11081;45.946;6.140;2022-08-21T12:51:48;2.25;;;0.70;;
21837;SDS011;11081;45.946;6.140;2022-08-21T12:54:25;1.15;;;0.70;;
21837;SDS011;11081;45.946;6.140;2022-08-21T12:56:58;0.75;;;0.60;;
21837;SDS011;11081;45.946;6.140;2022-08-21T12:59:27;3.90;;;0.75;;
21837;SDS011;11081;45.946;6.140;2022-08-21T13:01:56;1.33;;;0.60;;
21837;SDS011;11081;45.946;6.140;2022-08-21T13:04:32;1.80;;;0.88;;
21837;SDS011;11081;45.946;6.140;2022-08-21T13:07:05;0.75;;;0.60;;
21837;SDS011;11081;45.946;6.140;2022-08-21T13:09:39;0.88;;;0.70;;
21837;SDS011;11081;45.946;6.140;2022-08-21T13:12:15;0.70;;;0.50;;
21837;SDS011;11081;45.946;6.140;2022-08-21T13:14:46;2.10;;;0.70;;
21837;SDS011;11081;45.946;6.140;2022-08-21T13:17:18;3.92;;;0.60;;
21837;SDS011;11081;45.946;6.140;2022-08-21T13:19:58;1.77;;;0.63;;
21837;SDS011;11081;45.946;6.140;2022-08-21T13:22:28;0.73;;;0.65;;
21837;SDS011;11081;45.946;6.140;2022-08-21T13:25:00;0.93;;;0.73;;
21837;SDS011;11081;45.946;6.140;2022-08-21T13:27:34;1.60;;;0.80;;
21837;SDS011;11081;45.946;6.140;2022-08-21T13:30:06;4.47;;;0.63;;
21837;SDS011;11081;45.946;6.140;2022-08-21T13:32:40;2.25;;;0.90;;
21837;SDS011;11081;45.946;6.140;2022-08-21T13:35:11;0.90;;;0.60;;
21837;SDS011;11081;45.946;6.140;2022-08-21T13:37:42;1.17;;;0.80;;
21837;SDS011;11081;45.946;6.140;2022-08-21T13:40:13;1.75;;;1.10;;
21837;SDS011;11081;45.946;6.140;2022-08-21T13:42:45;2.10;;;0.60;;
21837;SDS011;11081;45.946;6.140;2022-08-21T13:45:18;0.70;;;0.65;;
21837;SDS011;11081;45.946;6.140;2022-08-21T13:47:50;0.90;;;0.70;;
21837;SDS011;11081;45.946;6.140;2022-08-21T13:50:20;3.03;;;0.77;;
21837;SDS011;11081;45.946;6.140;2022-08-21T13:53:00;1.80;;;1.17;;
21837;SDS011;11081;45.946;6.140;2022-08-21T13:55:35;1.90;;;0.70;;
21837;SDS011;11081;45.946;6.140;2022-08-21T13:58:07;0.80;;;0.80;;
21837;SDS011;11081;45.946;6.140;2022-08-21T14:00:42;0.63;;;0.60;;
21837;SDS011;11081;45.946;6.140;2022-08-21T14:03:13;0.95;;;0.70;;
21837;SDS011;11081;45.946;6.140;2022-08-21T14:05:55;3.80;;;0.63;;
21837;SDS011;11081;45.946;6.140;2022-08-21T14:08:27;0.60;;;0.50;;
21837;SDS011;11081;45.946;6.140;2022-08-21T14:10:59;1.10;;;0.70;;
21837;SDS011;11081;45.946;6.140;2022-08-21T14:13:45;2.15;;;0.85;;
21837;SDS011;11081;45.946;6.140;2022-08-21T14:16:17;1.58;;;0.90;;
21837;SDS011;11081;45.946;6.140;2022-08-21T14:18:52;3.90;;;0.70;;
21837;SDS011;11081;45.946;6.140;2022-08-21T14:21:30;0.73;;;0.68;;
21837;SDS011;11081;45.946;6.140;2022-08-21T14:24:08;2.15;;;0.90;;
21837;SDS011;11081;45.946;6.140;2022-08-21T14:26:43;1.67;;;0.65;;
21837;SDS011;11081;45.946;6.140;2022-08-21T14:29:16;1.17;;;0.70;;
21837;SDS011;11081;45.946;6.140;2022-08-21T14:31:51;3.22;;;0.80;;
21837;SDS011;11081;45.946;6.140;2022-08-21T14:34:24;1.23;;;0.85;;
21837;SDS011;11081;45.946;6.140;2022-08-21T14:36:58;1.98;;;0.60;;
21837;SDS011;11081;45.946;6.140;2022-08-21T14:39:26;1.40;;;0.88;;
21837;SDS011;11081;45.946;6.140;2022-08-21T14:41:54;1.60;;;0.82;;
21837;SDS011;11081;45.946;6.140;2022-08-21T14:44:25;2.50;;;0.75;;
21837;SDS011;11081;45.946;6.140;2022-08-21T14:46:53;0.90;;;0.82;;
21837;SDS011;11081;45.946;6.140;2022-08-21T14:49:23;0.90;;;0.70;;
21837;SDS011;11081;45.946;6.140;2022-08-21T14:51:54;1.98;;;0.90;;
21837;SDS011;11081;45.946;6.140;2022-08-21T14:54:24;1.33;;;0.90;;
21837;SDS011;11081;45.946;6.140;2022-08-21T14:56:57;5.45;;;1.13;;
21837;SDS011;11081;45.946;6.140;2022-08-21T14:59:29;2.95;;;0.80;;
21837;SDS011;11081;45.946;6.140;2022-08-21T15:01:59;3.80;;;1.08;;
21837;SDS011;11081;45.946;6.140;2022-08-21T15:04:30;1.00;;;0.80;;
21837;SDS011;11081;45.946;6.140;2022-08-21T15:06:59;1.48;;;0.85;;
21837;SDS011;11081;45.946;6.140;2022-08-21T15:09:27;1.98;;;0.80;;
21837;SDS011;11081;45.946;6.140;2022-08-21T15:11:56;1.17;;;0.85;;
21837;SDS011;11081;45.946;6.140;2022-08-21T15:14:26;2.28;;;1.13;;
21837;SDS011;11081;45.946;6.140;2022-08-21T15:16:57;5.10;;;1.00;;
21837;SDS011;11081;45.946;6.140;2022-08-21T15:19:26;3.40;;;0.95;;
21837;SDS011;11081;45.946;6.140;2022-08-21T15:21:55;3.78;;;0.70;;